Time;durP1;ratioP1;P1;durP2;ratioP2;P2;SDS_P1;SDS_P2;PMS_P1;PMS_P2;Temp;Humidity;BMP_temperature;BMP_pressure;BME280_temperature;BME280_humidity;BME280_pressure;Samples;Min_cycle;Max_cycle;Signal;HPM_P1;HPM_P2
2023/03/17 00:01:18;;;;;;;3.10;1.90;;;16.70;55.80;17.70;100157.00;;;;5010909;28;20267;-43
2023/03/17 00:03:45;;;;;;;2.90;1.87;;;16.70;55.80;17.70;100152.00;;;;5009904;28;20190;-44
2023/03/17 00:06:23;;;;;;;2.43;2.07;;;16.70;55.80;17.70;100149.00;;;;5010549;28;20190;-44
2023/03/17 00:08:49;;;;;;;2.10;1.93;;;16.60;55.80;17.70;100157.00;;;;5009885;28;20209;-44
2023/03/17 00:11:16;;;;;;;1.80;1.70;;;16.60;55.80;17.70;100147.00;;;;5010837;28;20187;-43
2023/03/17 00:13:43;;;;;;;1.73;1.63;;;16.60;55.80;17.60;100143.00;;;;5010847;28;20195;-43
2023/03/17 00:16:19;;;;;;;2.93;1.80;;;16.60;55.80;17.60;100147.00;;;;5010917;28;20622;-44
2023/03/17 00:18:45;;;;;;;2.10;1.90;;;16.60;55.80;17.60;100149.00;;;;5009329;28;20555;-44
2023/03/17 00:21:25;;;;;;;2.27;1.80;;;16.60;55.90;17.60;100162.00;;;;5009291;28;20179;-45
2023/03/17 00:23:51;;;;;;;1.87;1.70;;;16.60;55.80;17.60;100167.00;;;;5010297;28;20274;-43
2023/03/17 00:26:18;;;;;;;1.80;1.70;;;16.60;55.80;17.60;100178.00;;;;5014412;28;20222;-43
2023/03/17 00:28:44;;;;;;;1.80;1.70;;;16.50;55.80;17.50;100176.00;;;;5011305;28;20648;-44
2023/03/17 00:31:21;;;;;;;2.30;1.70;;;16.50;55.80;17.50;100166.00;;;;5012199;28;20243;-44
2023/03/17 00:33:47;;;;;;;1.90;1.80;;;16.50;55.80;17.50;100168.00;;;;5010709;28;20203;-43
2023/03/17 00:36:20;;;;;;;1.70;1.60;;;16.50;55.90;17.50;100193.00;;;;5009481;28;20172;-43
2023/03/17 00:38:45;;;;;;;2.00;1.80;;;16.50;56.50;17.50;100200.00;;;;5009279;28;20192;-43
2023/03/17 00:41:11;;;;;;;1.70;1.60;;;16.50;56.00;17.50;100199.00;;;;5010292;28;20552;-44
2023/03/17 00:43:38;;;;;;;1.80;1.70;;;16.50;55.90;17.20;100209.00;;;;5010365;28;20199;-44
2023/03/17 00:46:20;;;;;;;2.00;1.80;;;16.50;56.00;17.40;100197.00;;;;5010206;28;20664;-44
2023/03/17 00:48:47;;;;;;;1.80;1.70;;;16.40;55.90;17.40;100215.00;;;;5009130;28;20296;-44
2023/03/17 00:51:14;;;;;;;1.70;1.60;;;16.40;55.90;17.40;100216.00;;;;5008785;28;20224;-43
2023/03/17 00:53:40;;;;;;;2.73;1.70;;;16.40;55.90;17.40;100206.00;;;;5009986;28;20252;-44
2023/03/17 00:56:15;;;;;;;1.87;1.70;;;16.40;55.90;17.40;100211.00;;;;5009798;28;20175;-43
2023/03/17 00:58:41;;;;;;;1.97;1.80;;;16.40;55.90;17.40;100200.00;;;;5009930;28;20570;-43
2023/03/17 01:01:07;;;;;;;1.70;1.60;;;16.30;55.80;17.40;100197.00;;;;5008482;28;20180;-43
2023/03/17 01:03:33;;;;;;;1.87;1.63;;;16.30;55.80;17.40;100200.00;;;;5009416;28;20175;-43
2023/03/17 01:05:59;;;;;;;2.00;1.70;;;16.40;55.90;17.30;100203.00;;;;5009793;28;20180;-44
2023/03/17 01:08:25;;;;;;;1.90;1.70;;;16.40;55.90;17.30;100198.00;;;;5008537;28;20235;-44
2023/03/17 01:10:51;;;;;;;2.00;1.80;;;16.30;55.90;17.30;100207.00;;;;5008635;28;20180;-43
2023/03/17 01:13:17;;;;;;;1.70;1.60;;;16.30;56.00;17.30;100207.00;;;;5009404;28;20708;-43
2023/03/17 01:15:45;;;;;;;1.80;1.70;;;16.30;56.00;17.30;100201.00;;;;5010029;28;20266;-43
2023/03/17 01:18:13;;;;;;;2.33;1.70;;;16.30;56.10;17.30;100207.00;;;;5008058;28;20206;-45
2023/03/17 01:20:39;;;;;;;2.20;1.80;;;16.30;56.20;17.30;100206.00;;;;5010000;28;20530;-45
2023/03/17 01:23:05;;;;;;;2.37;1.80;;;16.30;56.30;17.30;100197.00;;;;5009598;28;20600;-43
2023/03/17 01:25:31;;;;;;;1.80;1.70;;;16.30;56.30;17.30;100190.00;;;;5009804;28;20641;-44
2023/03/17 01:27:58;;;;;;;1.80;1.70;;;16.20;56.20;17.30;100189.00;;;;5008926;28;20226;-43
2023/03/17 01:30:30;;;;;;;1.70;1.60;;;16.30;56.20;17.30;100176.00;;;;5009567;28;20686;-43
2023/03/17 01:32:56;;;;;;;1.60;1.50;;;16.20;56.10;17.30;100180.00;;;;5009359;28;20269;-44
2023/03/17 01:35:23;;;;;;;1.70;1.60;;;16.20;56.10;17.30;100176.00;;;;5009434;28;20650;-44
2023/03/17 01:37:49;;;;;;;1.90;1.70;;;16.20;56.10;17.20;100160.00;;;;5009392;28;20339;-44
2023/03/17 01:40:26;;;;;;;1.40;1.30;;;16.20;56.10;17.20;100172.00;;;;5009470;28;20179;-44
2023/03/17 01:42:59;;;;;;;1.73;1.63;;;16.20;56.10;17.20;100156.00;;;;5009572;28;20270;-43
2023/03/17 01:46:08;;;;;;;1.83;1.67;;;16.10;56.00;17.20;100148.00;;;;5009447;28;20270;-43
2023/03/17 01:48:44;;;;;;;1.70;1.60;;;16.20;56.20;17.10;100129.00;;;;5009278;28;20617;-44
2023/03/17 01:51:36;;;;;;;1.60;1.50;;;16.10;56.10;17.10;100132.00;;;;5007864;28;20187;-44
2023/03/17 01:54:07;;;;;;;1.60;1.50;;;16.10;56.10;17.10;100122.00;;;;5008545;28;20640;-43
2023/03/17 01:56:33;;;;;;;1.60;1.50;;;16.10;56.10;17.10;100119.00;;;;5008188;28;20208;-44
2023/03/17 01:59:01;;;;;;;1.70;1.60;;;16.10;56.10;17.10;100121.00;;;;5008015;28;20289;-43
2023/03/17 02:01:30;;;;;;;1.70;1.60;;;16.10;56.10;17.10;100044.00;;;;5007671;28;20176;-43
2023/03/17 02:03:56;;;;;;;1.90;1.70;;;16.10;56.10;17.10;100115.00;;;;5007739;28;20184;-44
2023/03/17 02:06:23;;;;;;;1.83;1.73;;;16.10;56.10;17.10;100109.00;;;;5007805;28;20261;-43
2023/03/17 02:08:48;;;;;;;1.80;1.70;;;16.10;56.10;17.10;100110.00;;;;5009202;28;20195;-42
2023/03/17 02:11:15;;;;;;;1.70;1.60;;;16.00;56.00;17.00;100118.00;;;;5008806;28;20226;-42
2023/03/17 02:13:43;;;;;;;1.70;1.60;;;16.10;56.00;17.00;100123.00;;;;5007787;28;20215;-43
2023/03/17 02:16:14;;;;;;;1.73;1.60;;;16.00;56.00;17.00;100107.00;;;;5012739;28;20230;-43
2023/03/17 02:18:40;;;;;;;1.70;1.60;;;16.00;56.00;17.00;100103.00;;;;5013211;28;20541;-44
2023/03/17 02:21:40;;;;;;;1.50;1.40;;;16.00;56.00;17.00;100096.00;;;;5012980;28;20175;-43
2023/03/17 02:24:19;;;;;;;1.57;1.47;;;16.00;56.00;17.00;100091.00;;;;5011872;28;20202;-43
2023/03/17 02:26:45;;;;;;;1.70;1.60;;;16.00;56.00;17.00;100062.00;;;;5011921;28;20234;-43
2023/03/17 02:29:11;;;;;;;1.60;1.50;;;16.00;56.00;16.90;100076.00;;;;5011553;28;20204;-44
2023/03/17 02:31:37;;;;;;;1.97;1.77;;;16.00;56.00;16.90;100068.00;;;;5012992;28;20179;-43
2023/03/17 02:34:03;;;;;;;1.90;1.80;;;15.90;55.90;16.90;100066.00;;;;5012817;28;20195;-44
2023/03/17 02:36:28;;;;;;;2.00;1.70;;;15.90;55.90;16.90;100080.00;;;;5012917;28;20638;-44
2023/03/17 02:38:55;;;;;;;1.70;1.60;;;15.90;56.00;16.90;100082.00;;;;5012706;28;20254;-44
2023/03/17 02:41:22;;;;;;;1.60;1.50;;;15.90;56.10;16.90;100092.00;;;;5012948;28;20198;-43
2023/03/17 02:43:47;;;;;;;1.53;1.47;;;15.90;56.20;16.90;100086.00;;;;5012771;28;20183;-43
2023/03/17 02:46:13;;;;;;;1.60;1.50;;;15.90;56.20;16.90;100088.00;;;;5018530;28;20188;-42
2023/03/17 02:48:39;;;;;;;1.90;1.70;;;15.90;56.20;16.90;100101.00;;;;5018570;28;20203;-43
2023/03/17 02:51:05;;;;;;;1.63;1.53;;;15.90;56.30;16.90;100103.00;;;;5013159;28;20206;-43
2023/03/17 02:53:31;;;;;;;1.70;1.60;;;15.90;56.30;16.90;100110.00;;;;5018778;28;20258;-43
2023/03/17 02:55:57;;;;;;;1.70;1.50;;;15.90;56.30;16.90;100119.00;;;;5019166;28;20187;-44
2023/03/17 02:58:23;;;;;;;1.47;1.37;;;15.90;56.30;16.90;100116.00;;;;5016591;28;20552;-44
2023/03/17 03:00:48;;;;;;;1.80;1.63;;;15.80;56.30;16.90;100107.00;;;;5012786;28;20183;-43
2023/03/17 03:03:15;;;;;;;1.57;1.47;;;15.90;56.30;16.90;100102.00;;;;5012535;28;20798;-46
2023/03/17 03:05:41;;;;;;;1.60;1.50;;;15.90;56.30;16.90;100108.00;;;;5012486;28;20188;-43
2023/03/17 03:08:07;;;;;;;1.80;1.70;;;15.80;56.30;16.90;100106.00;;;;5012103;28;20199;-43
2023/03/17 03:10:33;;;;;;;1.70;1.60;;;15.80;56.30;16.90;100107.00;;;;5011165;28;20548;-43
2023/03/17 03:12:59;;;;;;;1.83;1.73;;;15.80;56.30;16.80;100103.00;;;;5012195;28;20222;-43
2023/03/17 03:15:24;;;;;;;1.63;1.53;;;15.90;56.30;16.80;100120.00;;;;5012553;28;20171;-43
2023/03/17 03:17:50;;;;;;;1.70;1.60;;;15.80;56.30;16.80;100130.00;;;;5012402;28;20209;-43
2023/03/17 03:20:17;;;;;;;1.70;1.60;;;15.80;56.30;16.80;100127.00;;;;5011998;28;20207;-43
2023/03/17 03:22:42;;;;;;;1.70;1.60;;;15.80;56.30;16.80;100117.00;;;;5011983;28;20255;-44
2023/03/17 03:25:09;;;;;;;1.70;1.60;;;15.80;56.30;16.80;100118.00;;;;5012172;28;20282;-43
2023/03/17 03:27:34;;;;;;;1.70;1.50;;;15.80;56.30;16.80;100105.00;;;;5012868;28;20219;-44
2023/03/17 03:30:00;;;;;;;1.70;1.60;;;15.80;56.20;16.80;100095.00;;;;5014765;28;20190;-44
2023/03/17 03:32:26;;;;;;;1.47;1.37;;;15.80;56.30;16.80;100101.00;;;;5024672;28;20184;-43
2023/03/17 03:34:52;;;;;;;1.50;1.40;;;15.80;56.30;16.80;100095.00;;;;5027046;28;20256;-43
2023/03/17 03:37:18;;;;;;;1.90;1.80;;;15.80;56.30;16.80;100092.00;;;;5020402;28;20674;-44
2023/03/17 03:39:44;;;;;;;1.73;1.63;;;15.80;56.30;16.80;100094.00;;;;5012769;28;20286;-43
2023/03/17 03:42:10;;;;;;;1.80;1.70;;;15.80;56.40;16.80;100092.00;;;;5011844;28;20219;-44
2023/03/17 03:44:36;;;;;;;1.60;1.50;;;15.70;56.30;16.80;100084.00;;;;5012101;28;20207;-43
2023/03/17 03:47:01;;;;;;;1.40;1.30;;;15.80;56.40;16.80;100080.00;;;;5010463;28;20192;-43
2023/03/17 03:49:27;;;;;;;1.43;1.33;;;15.70;56.30;16.80;100073.00;;;;5011555;28;20196;-43
2023/03/17 03:51:53;;;;;;;1.53;1.43;;;15.70;56.30;16.80;100057.00;;;;5012120;28;20187;-44
2023/03/17 03:54:19;;;;;;;1.53;1.43;;;15.70;56.30;16.70;100065.00;;;;5011841;28;20290;-44
2023/03/17 03:56:44;;;;;;;1.60;1.50;;;15.70;56.30;16.70;100065.00;;;;5011529;28;20179;-43
2023/03/17 03:59:10;;;;;;;1.60;1.50;;;15.70;56.30;16.70;100070.00;;;;5011133;28;20250;-43
2023/03/17 04:01:37;;;;;;;1.70;1.60;;;15.70;56.30;16.70;100088.00;;;;5011238;28;20230;-44
2023/03/17 04:04:03;;;;;;;1.70;1.60;;;15.70;56.30;16.70;100095.00;;;;5011018;28;20275;-44
2023/03/17 04:06:29;;;;;;;1.90;1.60;;;15.70;56.20;16.70;100096.00;;;;5011213;28;20258;-43
2023/03/17 04:08:54;;;;;;;1.57;1.47;;;15.70;56.20;16.70;100096.00;;;;5011190;28;20263;-44
2023/03/17 04:11:20;;;;;;;1.70;1.60;;;15.70;56.20;16.70;100086.00;;;;5010997;28;20627;-44
2023/03/17 04:13:46;;;;;;;1.70;1.60;;;15.70;56.20;16.70;100094.00;;;;5011024;28;20234;-43
2023/03/17 04:16:12;;;;;;;1.70;1.60;;;15.70;56.20;16.70;100089.00;;;;5010534;28;20198;-43
2023/03/17 04:18:37;;;;;;;1.60;1.50;;;15.70;56.20;16.70;100094.00;;;;5010987;28;20279;-43
2023/03/17 04:21:03;;;;;;;1.60;1.50;;;15.70;56.20;16.70;100080.00;;;;5010773;28;20776;-44
2023/03/17 04:23:30;;;;;;;1.70;1.60;;;15.60;56.10;16.70;100043.00;;;;5010697;28;20187;-43
2023/03/17 04:25:57;;;;;;;1.70;1.60;;;15.60;56.10;16.70;100079.00;;;;5010809;28;20574;-44
2023/03/17 04:28:22;;;;;;;4.80;1.80;;;15.60;56.20;16.70;100084.00;;;;5010387;28;20266;-43
2023/03/17 04:30:48;;;;;;;2.07;1.40;;;15.60;56.90;16.70;100089.00;;;;5007619;28;20659;-43
2023/03/17 04:33:14;;;;;;;1.80;1.70;;;15.60;56.50;16.60;100099.00;;;;5007010;28;20208;-44
2023/03/17 04:35:40;;;;;;;1.93;1.83;;;15.60;56.40;16.40;100094.00;;;;5010640;28;20183;-44
2023/03/17 04:38:06;;;;;;;2.67;1.77;;;15.60;56.40;16.70;100098.00;;;;5009626;28;20196;-42
2023/03/17 04:40:31;;;;;;;1.40;1.30;;;15.60;56.30;16.60;100084.00;;;;5010337;28;20172;-44
2023/03/17 04:42:57;;;;;;;1.63;1.53;;;15.60;56.40;16.60;100102.00;;;;5010124;28;20171;-44
2023/03/17 04:45:23;;;;;;;1.67;1.57;;;15.60;56.30;16.60;100099.00;;;;5010154;28;20180;-44
2023/03/17 04:47:48;;;;;;;1.80;1.57;;;15.60;56.30;16.60;100097.00;;;;5011290;28;20179;-44
2023/03/17 04:50:14;;;;;;;1.57;1.47;;;15.60;56.20;16.60;100087.00;;;;5011376;28;20183;-43
2023/03/17 04:52:40;;;;;;;1.77;1.67;;;15.60;56.10;16.60;100075.00;;;;5011454;28;20182;-45
2023/03/17 04:55:07;;;;;;;1.80;1.70;;;15.60;56.10;16.60;100078.00;;;;5010945;28;20231;-43
2023/03/17 04:57:33;;;;;;;2.13;1.80;;;15.50;56.00;16.50;100076.00;;;;5009800;28;20194;-43
2023/03/17 04:59:59;;;;;;;2.20;1.70;;;15.50;55.90;16.50;100075.00;;;;5010565;28;20204;-43
2023/03/17 05:02:25;;;;;;;1.97;1.70;;;15.50;56.50;16.50;100070.00;;;;5010731;28;20184;-43
2023/03/17 05:04:50;;;;;;;1.63;1.53;;;15.50;55.80;16.50;100075.00;;;;5004224;28;20274;-43
2023/03/17 05:07:16;;;;;;;1.80;1.70;;;15.50;55.80;16.50;100075.00;;;;5010418;28;20184;-43
2023/03/17 05:09:42;;;;;;;2.00;1.80;;;15.50;55.80;16.50;100080.00;;;;5010939;28;20207;-42
2023/03/17 05:12:08;;;;;;;2.50;2.10;;;15.50;55.80;16.50;100081.00;;;;5011764;28;20184;-43
2023/03/17 05:14:35;;;;;;;3.10;2.00;;;15.50;55.80;16.50;100087.00;;;;5014393;28;20602;-42
2023/03/17 05:17:00;;;;;;;1.63;1.37;;;15.40;55.60;16.50;100098.00;;;;5018066;28;20229;-42
2023/03/17 05:19:26;;;;;;;1.90;1.80;;;15.40;55.70;16.50;100084.00;;;;5013489;28;20199;-44
2023/03/17 05:21:52;;;;;;;2.60;1.80;;;15.40;55.70;16.50;100090.00;;;;5010600;28;20179;-43
2023/03/17 05:24:17;;;;;;;2.70;2.10;;;15.40;55.60;16.50;100077.00;;;;5009434;28;20199;-43
2023/03/17 05:26:44;;;;;;;1.87;1.70;;;15.40;55.70;16.50;100087.00;;;;5007491;28;20654;-44
2023/03/17 05:29:09;;;;;;;1.97;1.80;;;15.40;55.80;16.40;100076.00;;;;5001916;28;20214;-43
2023/03/17 05:31:36;;;;;;;3.40;1.80;;;15.40;55.80;16.40;100087.00;;;;5005123;28;20900;-44
2023/03/17 05:34:02;;;;;;;3.87;1.80;;;15.40;55.90;16.40;100083.00;;;;5008332;28;20219;-43
2023/03/17 05:36:27;;;;;;;2.73;1.77;;;15.40;55.90;16.40;100096.00;;;;5009816;28;20180;-43
2023/03/17 05:38:53;;;;;;;4.57;1.80;;;15.40;55.90;16.40;100086.00;;;;5009584;28;20199;-44
2023/03/17 05:41:19;;;;;;;5.47;1.60;;;15.40;55.90;16.40;100065.00;;;;5009227;28;20188;-44
2023/03/17 05:43:45;;;;;;;3.40;2.00;;;15.40;55.90;16.40;100080.00;;;;5009246;28;20199;-43
2023/03/17 05:46:11;;;;;;;1.90;1.70;;;15.40;56.00;16.40;100087.00;;;;5009999;28;20534;-43
2023/03/17 05:48:37;;;;;;;5.50;2.10;;;15.40;56.00;16.40;100079.00;;;;5009404;28;20199;-43
2023/03/17 05:51:03;;;;;;;2.50;2.00;;;15.30;55.90;16.40;100073.00;;;;5009096;28;20286;-42
2023/03/17 05:53:30;;;;;;;2.13;1.70;;;15.30;55.90;16.40;100079.00;;;;5008862;28;20203;-43
2023/03/17 05:55:55;;;;;;;2.33;1.50;;;15.30;56.00;16.40;100065.00;;;;5009519;28;20728;-44
2023/03/17 05:58:21;;;;;;;2.20;1.90;;;15.30;55.90;16.40;100074.00;;;;5008326;28;20337;-44
2023/03/17 06:00:47;;;;;;;3.73;1.70;;;15.40;56.00;16.30;100083.00;;;;5008970;28;20229;-43
2023/03/17 06:03:13;;;;;;;3.73;1.80;;;15.30;55.90;16.40;100083.00;;;;5008201;28;20187;-43
2023/03/17 06:05:38;;;;;;;1.80;1.70;;;15.30;55.90;16.30;100078.00;;;;5009602;28;20191;-43
2023/03/17 06:08:05;;;;;;;1.97;1.77;;;15.30;55.90;16.30;100084.00;;;;5009053;28;20201;-44
2023/03/17 06:10:31;;;;;;;2.07;1.70;;;15.30;55.90;16.30;100083.00;;;;5009439;28;20965;-44
2023/03/17 06:12:59;;;;;;;2.40;1.77;;;15.30;56.00;16.30;100073.00;;;;5008922;28;20185;-43
2023/03/17 06:15:24;;;;;;;2.13;1.90;;;15.30;55.90;16.30;100075.00;;;;5008815;28;20180;-43
2023/03/17 06:17:50;;;;;;;2.07;1.87;;;15.30;56.00;16.30;100078.00;;;;5008446;28;20171;-43
2023/03/17 06:20:17;;;;;;;1.80;1.70;;;15.30;56.00;16.30;100086.00;;;;5009002;28;20178;-43
2023/03/17 06:22:43;;;;;;;1.70;1.60;;;15.20;55.90;16.30;100078.00;;;;5008873;28;20175;-43
2023/03/17 06:25:09;;;;;;;2.00;1.70;;;15.30;56.00;16.30;100078.00;;;;5007099;28;20210;-44
2023/03/17 06:27:36;;;;;;;1.50;1.40;;;15.30;56.00;16.30;100067.00;;;;5009209;28;20203;-44
2023/03/17 06:30:03;;;;;;;2.10;1.60;;;15.20;55.90;16.30;100076.00;;;;5008655;28;20195;-44
2023/03/17 06:32:29;;;;;;;1.67;1.57;;;15.20;55.90;16.20;100080.00;;;;5008356;28;20237;-45
2023/03/17 06:34:55;;;;;;;2.17;1.73;;;15.20;55.90;16.20;100085.00;;;;5008278;28;20326;-44
2023/03/17 06:37:20;;;;;;;1.80;1.70;;;15.20;55.90;16.30;100081.00;;;;5009084;28;20191;-44
2023/03/17 06:39:47;;;;;;;1.60;1.50;;;15.20;56.10;16.20;100086.00;;;;5008676;28;20196;-43
2023/03/17 06:42:13;;;;;;;1.50;1.40;;;15.20;56.20;16.20;100083.00;;;;5007447;28;20262;-44
2023/03/17 06:44:38;;;;;;;1.80;1.60;;;15.20;56.20;16.20;100090.00;;;;5008840;28;20255;-44
2023/03/17 06:47:06;;;;;;;1.80;1.70;;;15.20;56.10;16.20;100081.00;;;;5008852;28;20238;-43
2023/03/17 06:49:32;;;;;;;1.93;1.80;;;15.20;56.10;16.20;100070.00;;;;5007479;28;20680;-44
2023/03/17 06:51:57;;;;;;;1.87;1.77;;;15.20;56.20;16.20;100065.00;;;;5008533;28;20179;-45
2023/03/17 06:54:24;;;;;;;2.50;1.70;;;15.20;56.20;16.20;100064.00;;;;5008302;28;20211;-43
2023/03/17 06:56:51;;;;;;;1.80;1.70;;;15.20;56.20;16.20;100078.00;;;;5008020;28;20222;-43
2023/03/17 06:59:17;;;;;;;4.93;1.60;;;15.20;56.20;16.20;100065.00;;;;5008956;28;20282;-44
2023/03/17 07:01:44;;;;;;;2.33;1.47;;;15.20;56.30;16.20;100075.00;;;;5014629;28;20225;-44
2023/03/17 07:04:09;;;;;;;3.07;1.80;;;15.20;56.30;16.20;100078.00;;;;5015459;28;20194;-44
2023/03/17 07:06:35;;;;;;;3.47;1.70;;;15.20;56.30;16.20;100064.00;;;;5015402;28;20188;-44
2023/03/17 07:09:02;;;;;;;3.27;1.70;;;15.10;56.30;16.20;100075.00;;;;5012744;28;20206;-43
2023/03/17 07:11:29;;;;;;;4.47;1.90;;;15.20;56.40;16.10;100073.00;;;;5011842;28;20175;-44
2023/03/17 07:13:55;;;;;;;9.77;2.20;;;15.10;56.40;16.20;100085.00;;;;5011434;28;20199;-44
2023/03/17 07:16:21;;;;;;;6.57;2.10;;;15.10;56.60;16.20;100077.00;;;;5011081;28;20172;-45
2023/03/17 07:18:47;;;;;;;6.33;2.10;;;15.10;56.60;16.20;100078.00;;;;5011853;28;20195;-44
2023/03/17 07:21:12;;;;;;;5.17;1.73;;;15.10;56.60;16.10;100085.00;;;;5012061;28;20179;-44
2023/03/17 07:23:38;;;;;;;3.37;1.70;;;15.10;56.50;16.20;100082.00;;;;5011503;28;20195;-43
2023/03/17 07:26:04;;;;;;;4.03;2.10;;;15.10;56.50;16.10;100074.00;;;;5011770;28;20666;-44
2023/03/17 07:28:30;;;;;;;3.60;1.77;;;15.10;56.50;16.10;100087.00;;;;5023809;28;20362;-44
2023/03/17 07:30:56;;;;;;;2.37;1.60;;;15.10;56.70;16.10;100081.00;;;;5010510;28;20188;-44
2023/03/17 07:33:23;;;;;;;3.93;2.07;;;15.10;56.50;16.10;100070.00;;;;5009112;28;20203;-44
2023/03/17 07:35:49;;;;;;;4.27;2.00;;;15.10;56.50;16.10;100073.00;;;;5011499;28;20190;-44
2023/03/17 07:38:16;;;;;;;4.07;1.90;;;15.10;56.50;16.10;100082.00;;;;5009491;28;20206;-44
2023/03/17 07:40:43;;;;;;;2.10;1.90;;;15.10;56.50;16.10;100073.00;;;;5009141;28;20179;-44
2023/03/17 07:43:09;;;;;;;2.80;1.80;;;15.10;56.40;16.10;100075.00;;;;5009925;28;20187;-44
2023/03/17 07:45:35;;;;;;;2.77;1.70;;;15.00;56.40;16.10;100070.00;;;;5011259;28;20318;-44
2023/03/17 07:48:04;;;;;;;1.83;1.60;;;15.10;56.40;16.10;100068.00;;;;5013351;28;20739;-44
2023/03/17 07:50:34;;;;;;;2.63;1.83;;;15.00;56.30;16.10;100063.00;;;;5014974;28;20254;-44
2023/03/17 07:52:59;;;;;;;2.17;1.63;;;15.00;56.30;16.10;100068.00;;;;5013883;28;20172;-44
2023/03/17 07:55:25;;;;;;;2.07;1.77;;;15.10;56.40;16.10;100063.00;;;;5012793;28;20194;-44
2023/03/17 07:57:51;;;;;;;4.30;1.80;;;15.10;56.40;16.10;100067.00;;;;5011979;28;20176;-44
2023/03/17 08:00:18;;;;;;;3.70;1.70;;;15.10;56.30;16.10;100079.00;;;;5011775;28;20728;-44
2023/03/17 08:02:44;;;;;;;1.93;1.80;;;15.10;56.30;16.10;100078.00;;;;5012229;28;20180;-47
2023/03/17 08:05:10;;;;;;;2.73;1.73;;;15.00;56.20;16.10;100078.00;;;;5012410;28;20207;-43
2023/03/17 08:07:39;;;;;;;1.87;1.77;;;15.10;56.30;16.10;100080.00;;;;5011635;28;20214;-43
2023/03/17 08:10:06;;;;;;;1.77;1.67;;;15.10;56.40;16.00;100077.00;;;;5011085;28;20302;-42
2023/03/17 08:12:32;;;;;;;1.73;1.60;;;15.00;56.20;16.10;100068.00;;;;5010109;28;20262;-45
2023/03/17 08:14:58;;;;;;;1.63;1.53;;;15.00;56.20;16.10;100078.00;;;;5011387;28;20207;-44
2023/03/17 08:17:26;;;;;;;2.27;1.83;;;15.00;56.30;16.00;100081.00;;;;5011197;28;20176;-43
2023/03/17 08:19:53;;;;;;;2.80;1.80;;;15.00;56.30;16.00;100084.00;;;;5009687;28;20196;-44
2023/03/17 08:22:19;;;;;;;1.70;1.60;;;15.00;56.30;16.00;100087.00;;;;5010742;28;20180;-44
2023/03/17 08:24:44;;;;;;;2.53;1.70;;;15.10;56.40;16.00;100080.00;;;;5011237;28;20249;-44
2023/03/17 08:27:10;;;;;;;1.80;1.70;;;15.00;56.40;16.00;100081.00;;;;5011624;28;20241;-45
2023/03/17 08:29:36;;;;;;;1.80;1.53;;;15.00;56.30;16.00;100081.00;;;;5010763;28;20269;-43
2023/03/17 08:32:02;;;;;;;1.90;1.70;;;15.00;56.40;16.00;100084.00;;;;5010439;28;20179;-44
2023/03/17 08:34:28;;;;;;;1.60;1.50;;;15.00;56.40;16.00;100090.00;;;;5011083;28;20570;-44
2023/03/17 08:36:55;;;;;;;1.83;1.70;;;15.00;56.40;16.00;100097.00;;;;5010928;28;20282;-43
2023/03/17 08:39:21;;;;;;;1.80;1.70;;;15.00;56.40;16.00;100105.00;;;;5009690;28;20192;-42
2023/03/17 08:41:46;;;;;;;2.83;1.77;;;15.00;56.40;16.00;100088.00;;;;5010630;28;20550;-43
2023/03/17 08:44:13;;;;;;;1.73;1.60;;;15.00;56.40;16.00;100096.00;;;;5010980;28;20187;-44
2023/03/17 08:46:39;;;;;;;2.43;1.77;;;15.00;56.40;16.00;100087.00;;;;5012471;28;20267;-42
2023/03/17 08:49:05;;;;;;;1.80;1.63;;;15.00;56.40;16.00;100089.00;;;;5010647;28;20233;-43
2023/03/17 08:51:33;;;;;;;1.70;1.60;;;15.00;56.40;16.00;100078.00;;;;5010187;28;20176;-43
2023/03/17 08:53:59;;;;;;;1.60;1.50;;;15.00;56.40;16.00;100076.00;;;;5010759;28;20291;-43
2023/03/17 08:56:25;;;;;;;1.60;1.50;;;15.00;56.40;16.00;100073.00;;;;5009347;28;20212;-43
2023/03/17 08:58:51;;;;;;;2.20;1.70;;;15.00;56.40;16.00;100056.00;;;;5011120;28;20286;-44
2023/03/17 09:01:17;;;;;;;1.70;1.60;;;15.00;56.40;16.00;100055.00;;;;5010713;28;20238;-43
2023/03/17 09:03:44;;;;;;;1.77;1.63;;;15.00;56.50;16.00;100057.00;;;;5011083;28;20190;-43
2023/03/17 09:06:11;;;;;;;2.47;1.67;;;15.00;56.40;16.00;100053.00;;;;5010677;28;20191;-44
2023/03/17 09:08:38;;;;;;;1.53;1.40;;;15.00;56.50;16.00;100042.00;;;;5011236;28;20191;-43
2023/03/17 09:11:05;;;;;;;1.60;1.50;;;15.00;56.50;16.00;100051.00;;;;5011064;28;20187;-44
2023/03/17 09:13:36;;;;;;;1.60;1.50;;;15.00;56.60;16.00;100049.00;;;;5010813;28;20199;-44
2023/03/17 09:16:02;;;;;;;1.60;1.50;;;15.00;56.60;16.00;100052.00;;;;5010659;28;20198;-43
2023/03/17 09:18:30;;;;;;;1.70;1.60;;;15.00;56.60;16.00;100062.00;;;;5010367;28;20192;-44
2023/03/17 09:20:56;;;;;;;1.83;1.60;;;15.00;56.70;16.00;100077.00;;;;5010465;28;20733;-43
2023/03/17 09:23:22;;;;;;;2.10;1.60;;;15.00;56.70;16.00;100096.00;;;;5010081;28;20238;-44
2023/03/17 09:25:48;;;;;;;1.70;1.60;;;14.90;56.60;16.00;100086.00;;;;5010740;28;20180;-43
2023/03/17 09:28:14;;;;;;;1.60;1.50;;;15.00;56.70;16.00;100092.00;;;;5010177;28;20686;-44
2023/03/17 09:30:41;;;;;;;1.80;1.70;;;15.00;56.70;16.00;100096.00;;;;5010380;28;20183;-43
2023/03/17 09:33:11;;;;;;;1.77;1.63;;;15.00;56.70;16.00;100090.00;;;;5009782;28;20174;-44
2023/03/17 09:35:38;;;;;;;1.50;1.40;;;15.00;56.80;16.00;100087.00;;;;5010617;28;20664;-44
2023/03/17 09:38:05;;;;;;;1.70;1.60;;;15.00;56.80;16.00;100081.00;;;;5010293;28;20678;-43
2023/03/17 09:40:42;;;;;;;1.87;1.57;;;15.00;56.90;16.10;100068.00;;;;5010207;28;20179;-45
2023/03/17 09:43:32;;;;;;;1.50;1.40;;;15.00;56.90;16.00;100058.00;;;;5008733;28;20187;-43
2023/03/17 09:46:08;;;;;;;1.60;1.50;;;15.00;56.90;16.00;100064.00;;;;5009340;28;20306;-44
2023/03/17 09:48:58;;;;;;;1.70;1.60;;;15.00;56.90;16.00;100054.00;;;;5009117;28;20259;-44
2023/03/17 09:51:24;;;;;;;1.43;1.33;;;15.00;56.90;16.00;100046.00;;;;5010085;28;20564;-43
2023/03/17 09:53:52;;;;;;;2.23;1.50;;;15.00;56.80;16.00;100056.00;;;;5009419;28;20200;-43
2023/03/17 09:56:18;;;;;;;1.73;1.60;;;15.00;56.90;16.10;100049.00;;;;5010125;28;20263;-43
2023/03/17 09:59:05;;;;;;;1.50;1.40;;;15.00;56.90;16.10;100049.00;;;;5009157;28;20403;-43
2023/03/17 10:01:31;;;;;;;1.60;1.50;;;15.00;56.90;16.10;100052.00;;;;5009083;28;20198;-44
2023/03/17 10:03:57;;;;;;;1.60;1.50;;;15.00;56.80;16.10;100059.00;;;;5010368;28;20183;-44
2023/03/17 10:06:27;;;;;;;1.70;1.60;;;15.00;56.90;16.10;100061.00;;;;5009945;28;20198;-44
2023/03/17 10:09:06;;;;;;;1.70;1.60;;;15.00;56.90;16.10;100055.00;;;;5009044;28;20199;-44
2023/03/17 10:11:42;;;;;;;1.70;1.60;;;15.00;56.90;16.10;100052.00;;;;4993229;28;20190;-43
2023/03/17 10:14:30;;;;;;;1.70;1.60;;;15.10;57.00;16.10;100047.00;;;;5010232;28;20199;-43
2023/03/17 10:17:04;;;;;;;1.57;1.47;;;15.00;56.90;16.10;100046.00;;;;5010046;28;20194;-43
2023/03/17 10:19:47;;;;;;;1.70;1.60;;;15.00;56.90;16.10;100046.00;;;;5010294;28;20188;-44
2023/03/17 10:22:25;;;;;;;1.70;1.60;;;15.00;56.90;16.10;100048.00;;;;5008853;28;20179;-44
2023/03/17 10:24:53;;;;;;;1.90;1.80;;;15.00;56.90;16.10;100051.00;;;;5008357;28;20245;-44
2023/03/17 10:27:19;;;;;;;1.60;1.50;;;15.00;56.90;16.10;100054.00;;;;5008328;28;20190;-44
2023/03/17 10:29:45;;;;;;;1.73;1.63;;;15.00;57.00;16.10;100041.00;;;;5009858;28;20199;-47
2023/03/17 10:32:12;;;;;;;1.70;1.60;;;15.00;57.00;16.10;100045.00;;;;5009854;28;20180;-43
2023/03/17 10:34:38;;;;;;;1.70;1.60;;;15.00;57.00;16.10;100047.00;;;;5010596;28;20200;-45
2023/03/17 10:37:13;;;;;;;1.80;1.70;;;15.00;57.10;16.10;100042.00;;;;5013190;28;20254;-43
2023/03/17 10:39:53;;;;;;;1.50;1.40;;;15.00;57.10;16.20;100040.00;;;;5013537;28;20187;-44
2023/03/17 10:42:24;;;;;;;2.27;1.40;;;15.00;57.10;16.10;100025.00;;;;5013695;28;20175;-44
2023/03/17 10:44:57;;;;;;;1.93;1.83;;;15.00;57.20;16.10;100042.00;;;;5012851;28;20186;-43
2023/03/17 10:47:24;;;;;;;1.80;1.70;;;15.00;57.20;16.20;100042.00;;;;5012636;28;20178;-43
2023/03/17 10:49:51;;;;;;;1.73;1.63;;;15.00;57.20;16.20;100035.00;;;;5013223;28;20195;-45